Time;durP1;ratioP1;P1;durP2;ratioP2;P2;SDS_P1;SDS_P2;PMS_P1;PMS_P2;Temp;Humidity;BMP_temperature;BMP_pressure;BME280_temperature;BME280_humidity;BME280_pressure;Samples;Min_cycle;Max_cycle;Signal;HPM_P1;HPM_P2
2023/12/06 00:01:03;;;;;;;1.67;1.58;;;0.50;99.90;;;;;;5027257;28;20128;-72
2023/12/06 00:03:28;;;;;;;1.38;1.27;;;0.50;99.90;;;;;;5013630;28;20053;-72
2023/12/06 00:05:54;;;;;;;1.02;1.02;;;0.60;99.90;;;;;;5011284;28;20045;-72
2023/12/06 00:08:20;;;;;;;1.30;1.30;;;0.50;99.90;;;;;;5023582;28;20532;-72
2023/12/06 00:10:47;;;;;;;2.22;1.88;;;0.50;99.90;;;;;;5013607;28;20044;-72
2023/12/06 00:13:13;;;;;;;1.88;1.77;;;0.50;99.90;;;;;;5039526;28;20506;-72
2023/12/06 00:15:39;;;;;;;3.20;1.88;;;0.60;99.90;;;;;;5027339;28;20789;-72
2023/12/06 00:18:04;;;;;;;1.30;1.27;;;0.60;99.90;;;;;;5015850;28;20053;-72
2023/12/06 00:20:30;;;;;;;2.47;2.22;;;0.60;99.90;;;;;;5011241;28;20045;-72
2023/12/06 00:22:56;;;;;;;1.50;1.40;;;0.60;99.90;;;;;;5020133;28;20498;-72
2023/12/06 00:25:22;;;;;;;2.83;1.92;;;0.60;99.90;;;;;;5017852;28;20060;-72
2023/12/06 00:27:48;;;;;;;3.13;2.00;;;0.60;99.90;;;;;;5027338;28;20045;-72
2023/12/06 00:30:13;;;;;;;2.55;2.20;;;0.60;99.90;;;;;;5021208;28;20103;-72
2023/12/06 00:32:39;;;;;;;4.22;2.05;;;0.60;99.90;;;;;;5011972;28;20198;-72
2023/12/06 00:35:08;;;;;;;3.70;2.25;;;0.60;99.90;;;;;;5040715;28;20069;-72
2023/12/06 00:37:34;;;;;;;1.80;1.63;;;0.60;99.90;;;;;;5028469;28;20119;-72
2023/12/06 00:39:59;;;;;;;2.13;1.95;;;0.60;99.90;;;;;;5019892;28;20562;-72
2023/12/06 00:42:25;;;;;;;2.35;2.00;;;0.60;99.90;;;;;;5017745;28;20049;-72
2023/12/06 00:44:50;;;;;;;3.83;2.00;;;0.60;99.90;;;;;;5012254;28;20050;-72
2023/12/06 00:47:16;;;;;;;5.20;3.40;;;0.60;99.90;;;;;;5023646;28;20037;-72
2023/12/06 00:49:42;;;;;;;4.18;2.53;;;0.60;99.90;;;;;;5008402;28;20038;-72
2023/12/06 00:52:08;;;;;;;7.97;2.55;;;0.60;99.90;;;;;;5027780;28;20095;-72
2023/12/06 00:54:33;;;;;;;3.80;3.10;;;0.60;99.90;;;;;;5024273;28;20049;-72
2023/12/06 00:56:59;;;;;;;2.70;1.92;;;0.60;99.90;;;;;;5027049;28;20532;-72
2023/12/06 00:59:25;;;;;;;3.53;1.73;;;0.60;99.90;;;;;;5012206;28;20050;-72
2023/12/06 01:01:50;;;;;;;3.40;2.90;;;0.60;99.90;;;;;;5023254;28;20038;-72
2023/12/06 01:04:16;;;;;;;1.95;1.80;;;0.60;99.90;;;;;;5010617;28;20049;-72
2023/12/06 01:06:41;;;;;;;4.60;1.92;;;0.60;99.90;;;;;;5013528;28;20049;-72
2023/12/06 01:09:08;;;;;;;2.00;1.90;;;0.60;99.90;;;;;;5023296;28;20640;-72
2023/12/06 01:11:33;;;;;;;2.67;1.60;;;0.60;99.90;;;;;;5045554;28;20134;-72
2023/12/06 01:13:59;;;;;;;1.92;1.83;;;0.60;99.90;;;;;;5039193;28;20130;-72
2023/12/06 01:16:24;;;;;;;2.58;2.13;;;0.60;99.90;;;;;;5017412;28;20214;-72
2023/12/06 01:18:50;;;;;;;2.35;2.20;;;0.60;99.90;;;;;;5020955;28;20410;-72
2023/12/06 01:21:16;;;;;;;2.45;2.25;;;0.70;99.90;;;;;;5017642;28;20418;-72
2023/12/06 01:23:42;;;;;;;4.05;3.20;;;0.60;99.90;;;;;;5025530;28;20136;-72
2023/12/06 01:26:07;;;;;;;1.30;1.20;;;0.70;99.90;;;;;;5009681;28;20045;-72
2023/12/06 01:28:33;;;;;;;1.85;1.75;;;0.70;99.90;;;;;;5021557;28;20535;-72
2023/12/06 01:30:58;;;;;;;0.50;0.50;;;0.70;99.90;;;;;;5038669;28;20049;-72
2023/12/06 01:33:24;;;;;;;1.50;1.42;;;0.70;99.90;;;;;;5028877;28;20102;-72
2023/12/06 01:35:50;;;;;;;1.83;1.73;;;0.70;99.90;;;;;;5022202;28;20097;-72
2023/12/06 01:38:15;;;;;;;4.00;1.40;;;0.70;99.90;;;;;;5012659;28;20406;-72
2023/12/06 01:40:41;;;;;;;2.90;2.22;;;0.70;99.90;;;;;;5014909;28;20140;-72
2023/12/06 01:43:07;;;;;;;1.23;1.23;;;0.70;99.90;;;;;;5021762;28;20049;-72
2023/12/06 01:45:33;;;;;;;2.75;2.00;;;0.70;99.90;;;;;;5008871;28;20452;-72
2023/12/06 01:47:59;;;;;;;2.50;1.80;;;0.70;99.90;;;;;;5020641;28;20080;-72
2023/12/06 01:50:26;;;;;;;2.65;2.45;;;0.70;99.90;;;;;;5009351;28;20046;-72
2023/12/06 01:52:57;;;;;;;2.20;2.00;;;0.70;99.90;;;;;;5010954;28;20585;-72
2023/12/06 01:55:22;;;;;;;0.65;0.65;;;0.70;99.90;;;;;;5025887;28;20049;-72
2023/12/06 01:57:49;;;;;;;3.50;2.47;;;0.70;99.90;;;;;;5013685;28;20593;-72
2023/12/06 02:00:15;;;;;;;3.10;2.03;;;0.70;99.90;;;;;;5021360;28;20099;-72
2023/12/06 02:02:41;;;;;;;6.82;1.70;;;0.70;99.90;;;;;;5013426;28;20505;-72
2023/12/06 02:05:08;;;;;;;1.95;1.38;;;0.70;99.90;;;;;;5022028;28;20045;-72
2023/12/06 02:07:34;;;;;;;1.25;1.25;;;0.70;99.90;;;;;;5043185;28;20088;-72
2023/12/06 02:10:00;;;;;;;1.55;1.15;;;0.70;99.90;;;;;;5019372;28;20533;-72
2023/12/06 02:12:26;;;;;;;1.10;1.00;;;0.70;99.90;;;;;;5027710;28;20064;-73
2023/12/06 02:14:52;;;;;;;1.67;1.45;;;0.80;99.90;;;;;;5030492;28;20037;-72
2023/12/06 02:17:18;;;;;;;1.45;1.35;;;0.80;99.90;;;;;;5008942;28;20140;-72
2023/12/06 02:19:45;;;;;;;1.45;1.38;;;0.80;99.90;;;;;;5025357;28;20395;-72
2023/12/06 02:22:11;;;;;;;2.40;1.52;;;0.80;99.90;;;;;;5008824;28;20046;-72
2023/12/06 02:24:38;;;;;;;2.03;1.48;;;0.80;99.90;;;;;;5020576;28;20092;-72
2023/12/06 02:27:04;;;;;;;2.05;1.48;;;0.80;99.90;;;;;;5029266;28;20080;-72
2023/12/06 02:29:30;;;;;;;1.48;1.38;;;0.80;99.90;;;;;;5029244;28;20034;-72
2023/12/06 02:31:55;;;;;;;1.00;1.00;;;0.80;99.90;;;;;;5015795;28;20096;-72
2023/12/06 02:34:25;;;;;;;1.15;1.08;;;0.80;99.90;;;;;;5017881;28;20125;-72
2023/12/06 02:36:55;;;;;;;2.20;1.75;;;0.80;99.90;;;;;;5012282;28;20415;-71
2023/12/06 02:39:21;;;;;;;0.90;0.90;;;0.80;99.90;;;;;;5024923;28;20124;-72
2023/12/06 02:41:47;;;;;;;2.55;2.35;;;0.80;99.90;;;;;;5017266;28;20104;-72
2023/12/06 02:44:12;;;;;;;1.58;1.48;;;0.80;99.90;;;;;;5018356;28;20052;-71
2023/12/06 02:46:38;;;;;;;2.20;1.67;;;0.80;99.90;;;;;;5024822;28;20060;-72
2023/12/06 02:49:04;;;;;;;1.55;1.13;;;0.80;99.90;;;;;;5028952;28;20038;-71
2023/12/06 02:51:30;;;;;;;1.77;1.48;;;0.80;99.90;;;;;;5025195;28;20418;-72
2023/12/06 02:53:55;;;;;;;2.83;1.02;;;0.80;99.90;;;;;;5027568;28;20088;-72
2023/12/06 02:56:21;;;;;;;1.88;1.77;;;0.80;99.90;;;;;;5014326;28;20049;-72
2023/12/06 02:58:46;;;;;;;1.08;0.98;;;0.80;99.90;;;;;;5028879;28;20042;-72
2023/12/06 03:01:12;;;;;;;1.15;1.15;;;0.80;99.90;;;;;;5016478;28;20053;-72
2023/12/06 03:03:38;;;;;;;1.52;1.45;;;0.80;99.90;;;;;;5042963;28;20048;-72
2023/12/06 03:06:03;;;;;;;2.13;1.17;;;0.80;99.90;;;;;;5013014;28;20132;-72
2023/12/06 03:08:29;;;;;;;1.27;1.17;;;0.80;99.90;;;;;;5025525;28;20084;-72
2023/12/06 03:10:55;;;;;;;1.60;1.35;;;0.80;99.90;;;;;;5015670;28;20033;-72
2023/12/06 03:13:20;;;;;;;1.42;1.35;;;0.80;99.90;;;;;;5045279;28;20045;-72
2023/12/06 03:15:46;;;;;;;1.33;1.23;;;0.80;99.90;;;;;;5023538;28;20044;-72
2023/12/06 03:18:12;;;;;;;2.15;1.92;;;0.80;99.90;;;;;;5018534;28;20045;-72
2023/12/06 03:20:37;;;;;;;1.00;1.00;;;0.80;99.90;;;;;;5015882;28;20050;-72
2023/12/06 03:23:03;;;;;;;1.10;1.10;;;0.90;99.90;;;;;;5028061;28;20453;-72
2023/12/06 03:25:29;;;;;;;1.08;1.08;;;0.90;99.90;;;;;;5034747;28;20053;-72
2023/12/06 03:27:55;;;;;;;2.15;1.45;;;0.90;99.90;;;;;;5027549;28;20053;-72
2023/12/06 03:30:20;;;;;;;1.70;1.48;;;0.90;99.90;;;;;;5021392;28;20050;-72
2023/12/06 03:32:46;;;;;;;1.83;1.70;;;0.90;99.90;;;;;;5011738;28;20084;-72
2023/12/06 03:35:12;;;;;;;2.45;1.35;;;0.90;99.90;;;;;;5024454;28;20050;-72
2023/12/06 03:37:37;;;;;;;1.77;1.65;;;0.90;99.90;;;;;;5014640;28;20110;-72
2023/12/06 03:40:03;;;;;;;1.52;1.38;;;0.90;99.90;;;;;;5018059;28;20041;-72
2023/12/06 03:42:29;;;;;;;1.90;1.52;;;0.90;99.90;;;;;;5021815;28;20394;-72
2023/12/06 03:44:55;;;;;;;1.90;1.38;;;0.80;99.90;;;;;;5027276;28;20041;-72
2023/12/06 03:47:20;;;;;;;1.30;1.02;;;0.90;99.90;;;;;;5022172;28;20048;-72
2023/12/06 03:49:46;;;;;;;1.52;1.08;;;0.90;99.90;;;;;;5012951;28;20049;-72
2023/12/06 03:52:11;;;;;;;0.70;0.70;;;0.80;99.90;;;;;;5028241;28;20394;-72
2023/12/06 03:54:37;;;;;;;1.58;1.50;;;0.90;99.90;;;;;;5020111;28;20095;-72
2023/12/06 03:57:03;;;;;;;1.05;1.05;;;0.90;99.90;;;;;;5019356;28;20041;-72
2023/12/06 03:59:28;;;;;;;1.80;1.70;;;0.90;99.90;;;;;;5027291;28;20087;-72
2023/12/06 04:01:54;;;;;;;1.20;1.10;;;0.90;99.90;;;;;;5011219;28;20052;-72
2023/12/06 04:04:20;;;;;;;1.10;0.90;;;0.90;99.90;;;;;;5025222;28;20054;-72
2023/12/06 04:06:45;;;;;;;1.02;1.02;;;0.90;99.90;;;;;;5023021;28;20030;-72
2023/12/06 04:09:11;;;;;;;1.13;1.13;;;0.90;99.90;;;;;;5017681;28;20080;-72
2023/12/06 04:11:37;;;;;;;1.27;0.80;;;0.90;99.90;;;;;;5023819;28;20057;-72
2023/12/06 04:14:03;;;;;;;1.45;1.35;;;0.90;99.90;;;;;;5039571;28;20045;-72
2023/12/06 04:16:31;;;;;;;0.90;0.90;;;0.90;99.90;;;;;;5017419;28;20448;-72
2023/12/06 04:18:57;;;;;;;;;;;0.90;99.90;;;;;;5031472;28;20037;-72
2023/12/06 04:21:23;;;;;;;2.70;1.63;;;0.90;99.90;;;;;;5036302;28;20414;-72
2023/12/06 04:23:48;;;;;;;2.65;1.88;;;0.90;99.90;;;;;;5027329;28;20445;-72
2023/12/06 04:26:14;;;;;;;0.77;0.77;;;0.90;99.90;;;;;;5010494;28;20093;-72
2023/12/06 04:28:40;;;;;;;0.90;0.90;;;0.90;99.90;;;;;;5023975;28;20680;-72
2023/12/06 04:31:06;;;;;;;1.77;1.20;;;0.90;99.90;;;;;;5023721;28;20041;-72
2023/12/06 04:33:31;;;;;;;2.00;1.83;;;0.90;99.90;;;;;;5012775;28;20045;-72
2023/12/06 04:35:57;;;;;;;1.23;1.10;;;0.90;99.90;;;;;;5001150;28;20049;-72
2023/12/06 04:38:23;;;;;;;0.80;0.80;;;0.90;99.90;;;;;;5020144;28;20076;-72
2023/12/06 04:40:48;;;;;;;1.85;1.75;;;0.90;99.90;;;;;;5025326;28;20045;-72
2023/12/06 04:43:16;;;;;;;4.20;2.83;;;0.90;99.90;;;;;;5024331;28;20053;-72
2023/12/06 04:45:42;;;;;;;2.97;2.50;;;0.90;99.90;;;;;;5012992;28;20486;-72
2023/12/06 04:48:07;;;;;;;2.25;2.05;;;0.90;99.90;;;;;;5017812;28;20048;-73
2023/12/06 04:50:33;;;;;;;2.17;1.98;;;0.90;99.90;;;;;;5016966;28;20053;-72
2023/12/06 04:52:58;;;;;;;1.00;0.63;;;0.90;99.90;;;;;;5027027;28;20483;-72
2023/12/06 04:55:24;;;;;;;0.70;0.70;;;0.90;99.90;;;;;;5037119;28;20037;-72
2023/12/06 04:57:50;;;;;;;1.10;1.08;;;0.90;99.90;;;;;;5029740;28;20049;-72
2023/12/06 05:00:17;;;;;;;1.67;1.30;;;0.90;99.90;;;;;;5010171;28;20520;-72
2023/12/06 05:02:42;;;;;;;3.03;1.75;;;0.90;99.90;;;;;;5001906;28;20128;-72
2023/12/06 05:05:08;;;;;;;1.63;1.35;;;0.90;99.90;;;;;;5010311;28;20463;-72
2023/12/06 05:07:34;;;;;;;0.77;0.77;;;0.90;99.90;;;;;;5018965;28;20054;-72
2023/12/06 05:09:59;;;;;;;5.18;1.95;;;0.90;99.90;;;;;;5011283;28;20574;-72
2023/12/06 05:12:25;;;;;;;4.03;1.25;;;0.90;99.90;;;;;;5035935;28;20138;-72
2023/12/06 05:14:50;;;;;;;3.33;1.88;;;0.90;99.90;;;;;;5035250;28;20041;-72
2023/12/06 05:17:16;;;;;;;1.75;1.25;;;0.90;99.90;;;;;;5040010;28;20075;-72
2023/12/06 05:19:42;;;;;;;3.97;1.58;;;0.90;99.90;;;;;;5026581;28;20045;-72
2023/12/06 05:22:07;;;;;;;2.13;1.45;;;0.90;99.90;;;;;;5009697;28;20049;-72
2023/12/06 05:24:33;;;;;;;1.02;1.02;;;0.90;99.90;;;;;;5022392;28;20153;-72
2023/12/06 05:26:59;;;;;;;1.08;1.08;;;0.90;99.90;;;;;;5014952;28;20053;-72
2023/12/06 05:29:24;;;;;;;1.63;1.52;;;0.90;99.90;;;;;;5019530;28;20045;-72
2023/12/06 05:31:50;;;;;;;3.97;1.50;;;0.90;99.90;;;;;;5017736;28;20204;-72
2023/12/06 05:34:15;;;;;;;0.85;0.85;;;0.90;99.90;;;;;;5019407;28;20069;-72
2023/12/06 05:36:41;;;;;;;1.92;1.08;;;0.90;99.90;;;;;;5022136;28;20057;-72
2023/12/06 05:39:07;;;;;;;2.13;1.50;;;0.90;99.90;;;;;;5025579;28;20076;-72
2023/12/06 05:41:33;;;;;;;0.90;0.90;;;0.90;99.90;;;;;;5010852;28;20046;-72
2023/12/06 05:43:58;;;;;;;1.88;1.77;;;0.90;99.90;;;;;;5021293;28;20038;-72
2023/12/06 05:46:24;;;;;;;1.00;1.00;;;0.90;99.90;;;;;;5016274;28;20077;-72
2023/12/06 05:48:50;;;;;;;3.25;0.90;;;1.00;99.90;;;;;;5014347;28;20057;-72
2023/12/06 05:51:15;;;;;;;1.38;1.27;;;1.00;99.90;;;;;;5011285;28;20053;-71
2023/12/06 05:53:41;;;;;;;1.27;1.27;;;1.00;99.90;;;;;;5016106;28;20047;-72
2023/12/06 05:56:07;;;;;;;1.27;1.23;;;1.00;99.90;;;;;;5009645;28;20052;-72
2023/12/06 05:58:34;;;;;;;1.90;1.80;;;1.00;99.90;;;;;;5019339;28;20053;-72
2023/12/06 06:01:00;;;;;;;2.65;1.83;;;1.00;99.90;;;;;;5016573;28;20045;-71
2023/12/06 06:03:26;;;;;;;1.25;1.15;;;1.00;99.90;;;;;;5011198;28;20132;-72
2023/12/06 06:05:52;;;;;;;0.77;0.77;;;1.00;99.90;;;;;;5009412;28;20046;-72
2023/12/06 06:08:17;;;;;;;4.40;1.17;;;1.00;99.90;;;;;;5021799;28;20041;-72
2023/12/06 06:10:43;;;;;;;0.82;0.82;;;1.00;99.90;;;;;;5011395;28;20465;-72
2023/12/06 06:13:09;;;;;;;0.98;0.88;;;1.00;99.90;;;;;;5044777;28;20526;-72
2023/12/06 06:15:35;;;;;;;0.52;0.52;;;1.00;99.90;;;;;;5021886;28;20056;-72
2023/12/06 06:18:03;;;;;;;1.98;1.88;;;1.00;99.90;;;;;;5013764;28;20045;-72
2023/12/06 06:20:28;;;;;;;0.60;0.60;;;1.00;99.90;;;;;;5017696;28;20048;-72
2023/12/06 06:22:54;;;;;;;1.00;0.90;;;1.00;99.90;;;;;;5025280;28;20560;-71
2023/12/06 06:25:21;;;;;;;1.27;1.17;;;1.00;99.90;;;;;;5015102;28;20472;-72
2023/12/06 06:27:47;;;;;;;1.58;1.48;;;1.00;99.90;;;;;;5020610;28;20045;-72
2023/12/06 06:30:13;;;;;;;2.35;1.08;;;1.00;99.90;;;;;;5018823;28;20053;-72
2023/12/06 06:32:39;;;;;;;0.93;0.85;;;1.00;99.90;;;;;;5019379;28;20475;-72
2023/12/06 06:35:05;;;;;;;1.15;0.88;;;1.00;99.90;;;;;;5025611;28;20072;-72
2023/12/06 06:37:30;;;;;;;1.25;1.15;;;1.00;99.90;;;;;;5009162;28;20050;-72
2023/12/06 06:39:56;;;;;;;0.90;0.90;;;1.00;99.90;;;;;;5021543;28;20042;-72
2023/12/06 06:42:22;;;;;;;0.50;0.50;;;1.00;99.90;;;;;;5012099;28;20076;-72
2023/12/06 06:44:51;;;;;;;0.98;0.90;;;1.00;99.90;;;;;;5014728;28;20053;-72
2023/12/06 06:47:17;;;;;;;0.80;0.80;;;1.00;99.90;;;;;;5027001;28;20569;-72
2023/12/06 06:49:42;;;;;;;0.50;0.50;;;1.00;99.90;;;;;;5031911;28;20121;-72
2023/12/06 06:52:08;;;;;;;0.68;0.68;;;1.00;99.90;;;;;;5025016;28;20391;-72
2023/12/06 06:54:34;;;;;;;1.35;1.27;;;1.00;99.90;;;;;;5019485;28;20050;-72
2023/12/06 06:56:59;;;;;;;1.08;0.88;;;1.00;99.90;;;;;;5017144;28;20497;-72
2023/12/06 06:59:25;;;;;;;1.00;1.00;;;1.00;99.90;;;;;;5024860;28;20114;-72
2023/12/06 07:01:52;;;;;;;1.17;0.95;;;1.00;99.90;;;;;;5009092;28;20479;-72
2023/12/06 07:04:18;;;;;;;1.23;1.15;;;1.00;99.90;;;;;;5021783;28;20054;-72
2023/12/06 07:06:43;;;;;;;0.85;0.85;;;1.00;99.90;;;;;;5020118;28;20396;-72
2023/12/06 07:09:09;;;;;;;1.23;1.13;;;1.10;99.90;;;;;;5024026;28;20048;-72
2023/12/06 07:11:35;;;;;;;0.65;0.65;;;1.00;99.90;;;;;;5030046;28;20033;-72
2023/12/06 07:14:02;;;;;;;0.93;0.88;;;1.00;99.90;;;;;;5037678;28;20038;-72
2023/12/06 07:16:28;;;;;;;2.25;1.52;;;1.00;99.90;;;;;;5013431;28;20108;-72
2023/12/06 07:18:53;;;;;;;0.60;0.60;;;1.00;99.90;;;;;;5019858;28;20077;-71
2023/12/06 07:21:19;;;;;;;1.10;1.10;;;1.10;99.90;;;;;;5000718;28;20067;-72
2023/12/06 07:23:45;;;;;;;2.65;0.80;;;1.00;99.90;;;;;;5027970;28;20041;-72
2023/12/06 07:26:10;;;;;;;1.02;1.02;;;1.00;99.90;;;;;;5012138;28;20058;-72
2023/12/06 07:28:36;;;;;;;1.13;1.13;;;1.00;99.90;;;;;;5029620;28;20526;-72
2023/12/06 07:31:02;;;;;;;2.20;1.02;;;1.00;99.90;;;;;;5025993;28;20449;-72
2023/12/06 07:33:27;;;;;;;1.20;1.10;;;1.00;99.90;;;;;;5014970;28;20051;-72
2023/12/06 07:35:54;;;;;;;0.93;0.93;;;1.00;99.90;;;;;;5019815;28;20046;-72
2023/12/06 07:38:20;;;;;;;1.00;1.00;;;1.00;99.90;;;;;;5022079;28;20083;-72
2023/12/06 07:40:45;;;;;;;2.17;0.88;;;1.10;99.90;;;;;;5013654;28;20359;-72
2023/12/06 07:43:11;;;;;;;0.98;0.98;;;1.10;99.90;;;;;;5032504;28;20056;-72
2023/12/06 07:45:37;;;;;;;0.77;0.77;;;1.10;99.90;;;;;;5041932;28;20045;-72
2023/12/06 07:48:02;;;;;;;2.40;1.23;;;1.10;99.90;;;;;;5016783;28;20056;-71
2023/12/06 07:50:28;;;;;;;1.02;0.60;;;1.10;99.90;;;;;;5020615;28;20426;-72
2023/12/06 07:52:54;;;;;;;1.33;1.33;;;1.10;99.90;;;;;;5029664;28;20135;-72
2023/12/06 07:55:20;;;;;;;2.92;1.40;;;1.10;99.90;;;;;;5014945;28;20089;-72
2023/12/06 07:57:45;;;;;;;0.60;0.60;;;1.10;99.90;;;;;;5026038;28;20057;-72
2023/12/06 08:00:13;;;;;;;0.60;0.60;;;1.10;99.90;;;;;;5025455;28;20045;-72
2023/12/06 08:02:39;;;;;;;0.80;0.80;;;1.10;99.90;;;;;;4999325;28;20054;-72
2023/12/06 08:05:10;;;;;;;0.40;0.40;;;1.10;99.90;;;;;;5037265;28;20045;-72
2023/12/06 08:07:37;;;;;;;0.60;0.60;;;1.10;99.90;;;;;;5028723;28;20052;-72
2023/12/06 08:10:08;;;;;;;0.50;0.50;;;1.10;99.90;;;;;;5011962;28;20053;-72
2023/12/06 08:12:34;;;;;;;1.40;1.30;;;1.10;99.90;;;;;;5032189;28;20044;-72
2023/12/06 08:14:59;;;;;;;0.95;0.95;;;1.10;99.90;;;;;;5033127;28;20136;-72
2023/12/06 08:17:25;;;;;;;1.02;1.02;;;1.10;99.90;;;;;;5011253;28;20125;-72
2023/12/06 08:19:51;;;;;;;1.58;1.42;;;1.10;99.90;;;;;;5004273;28;20038;-72
2023/12/06 08:22:16;;;;;;;0.60;0.60;;;1.10;99.90;;;;;;5025168;28;20136;-72
2023/12/06 08:24:42;;;;;;;0.50;0.50;;;1.20;99.90;;;;;;5028655;28;20257;-71
2023/12/06 08:27:07;;;;;;;0.75;0.70;;;1.20;99.90;;;;;;5027077;28;20760;-72
2023/12/06 08:29:33;;;;;;;1.23;1.23;;;1.20;99.90;;;;;;5020202;28;20057;-71
2023/12/06 08:31:59;;;;;;;1.42;0.95;;;1.20;99.90;;;;;;5001643;28;20137;-72
2023/12/06 08:34:24;;;;;;;0.93;0.93;;;1.20;99.90;;;;;;5021487;28;20410;-72
2023/12/06 08:36:50;;;;;;;1.27;1.00;;;1.20;99.90;;;;;;5011020;28;20037;-72
2023/12/06 08:39:16;;;;;;;1.35;1.25;;;1.20;99.90;;;;;;5029831;28;20098;-72
2023/12/06 08:41:41;;;;;;;0.85;0.85;;;1.20;99.90;;;;;;5040521;28;20490;-72
2023/12/06 08:44:07;;;;;;;1.08;1.08;;;1.20;99.90;;;;;;5016942;28;20061;-72
2023/12/06 08:46:32;;;;;;;1.35;1.25;;;1.20;99.90;;;;;;5020894;28;20046;-72
2023/12/06 08:48:58;;;;;;;0.50;0.50;;;1.30;99.90;;;;;;5010451;28;20415;-72
2023/12/06 08:51:24;;;;;;;0.68;0.68;;;1.30;99.90;;;;;;5023060;28;20352;-72
2023/12/06 08:53:49;;;;;;;0.75;0.75;;;1.30;99.90;;;;;;5025611;28;20049;-72
2023/12/06 08:56:15;;;;;;;1.77;1.33;;;1.30;99.90;;;;;;5011664;28;20049;-72
2023/12/06 08:58:40;;;;;;;4.75;1.02;;;1.30;99.90;;;;;;5026649;28;20111;-72
2023/12/06 09:01:06;;;;;;;3.10;1.23;;;1.30;99.90;;;;;;5040834;28;20446;-72
2023/12/06 09:03:32;;;;;;;0.75;0.75;;;1.30;99.90;;;;;;5028045;28;20124;-72
2023/12/06 09:05:57;;;;;;;0.98;0.98;;;1.30;99.90;;;;;;5011956;28;20046;-72
2023/12/06 09:08:23;;;;;;;1.50;0.90;;;1.30;99.90;;;;;;5023067;28;20046;-72
2023/12/06 09:10:52;;;;;;;0.77;0.77;;;1.30;99.90;;;;;;5012352;28;20498;-72
2023/12/06 09:13:18;;;;;;;0.90;0.90;;;1.30;99.90;;;;;;5042403;28;20053;-72
2023/12/06 09:15:44;;;;;;;0.60;0.60;;;1.30;99.90;;;;;;5020890;28;20126;-72
2023/12/06 09:18:10;;;;;;;1.35;1.27;;;1.30;99.90;;;;;;5015536;28;20132;-71
2023/12/06 09:20:36;;;;;;;0.80;0.80;;;1.40;99.90;;;;;;5017944;28;20503;-72
2023/12/06 09:23:01;;;;;;;0.70;0.70;;;1.40;99.90;;;;;;5026824;28;20408;-72
2023/12/06 09:25:27;;;;;;;0.73;0.73;;;1.40;99.90;;;;;;4999493;28;20054;-72
2023/12/06 09:27:53;;;;;;;0.52;0.52;;;1.40;99.90;;;;;;5021285;28;20238;-72
2023/12/06 09:30:19;;;;;;;0.82;0.82;;;1.40;99.90;;;;;;5021520;28;20073;-72
2023/12/06 09:32:45;;;;;;;1.20;1.10;;;1.40;99.90;;;;;;5011015;28;20065;-72
2023/12/06 09:35:11;;;;;;;0.65;0.65;;;1.40;99.90;;;;;;5023932;28;20074;-72
2023/12/06 09:37:37;;;;;;;1.40;1.30;;;1.40;99.90;;;;;;5025559;28;20525;-72
2023/12/06 09:40:02;;;;;;;1.33;0.95;;;1.50;99.90;;;;;;5019177;28;20045;-72
2023/12/06 09:42:29;;;;;;;1.33;1.20;;;1.50;99.90;;;;;;5016827;28;20498;-72
2023/12/06 09:44:55;;;;;;;0.60;0.60;;;1.50;99.90;;;;;;5010841;28;20054;-72
2023/12/06 09:47:23;;;;;;;0.75;0.75;;;1.50;99.90;;;;;;5022668;28;20494;-72
2023/12/06 09:49:49;;;;;;;0.85;0.85;;;1.50;99.90;;;;;;5009173;28;20045;-71
2023/12/06 09:52:21;;;;;;;3.35;1.17;;;1.60;99.90;;;;;;5025566;28;20137;-72
2023/12/06 09:54:51;;;;;;;0.85;0.82;;;1.60;99.90;;;;;;5016415;28;20053;-72
2023/12/06 09:57:18;;;;;;;1.17;1.05;;;1.60;99.90;;;;;;5033630;28;20052;-72
2023/12/06 09:59:43;;;;;;;0.90;0.90;;;1.60;99.90;;;;;;5029537;28;20096;-72
2023/12/06 10:02:09;;;;;;;2.17;1.48;;;1.60;99.90;;;;;;5009615;28;20080;-72
2023/12/06 10:04:35;;;;;;;1.85;1.75;;;1.60;99.90;;;;;;5022213;28;20045;-72
2023/12/06 10:07:01;;;;;;;0.60;0.60;;;1.70;99.90;;;;;;5018777;28;20099;-72
2023/12/06 10:09:27;;;;;;;1.80;1.30;;;1.70;99.90;;;;;;5016371;28;20453;-72
2023/12/06 10:12:07;;;;;;;0.52;0.52;;;1.70;99.90;;;;;;5023728;28;20045;-72
2023/12/06 10:14:33;;;;;;;0.40;0.40;;;1.70;99.90;;;;;;5034745;28;20059;-72
2023/12/06 10:16:58;;;;;;;0.93;0.93;;;1.80;99.90;;;;;;5009130;28;20050;-72
2023/12/06 10:19:24;;;;;;;1.17;1.17;;;1.80;99.90;;;;;;5025432;28;20051;-72
2023/12/06 10:21:51;;;;;;;0.70;0.70;;;1.80;99.90;;;;;;5010607;28;20426;-72
2023/12/06 10:24:16;;;;;;;2.83;1.58;;;1.80;99.90;;;;;;5021753;28;20533;-72
2023/12/06 10:26:42;;;;;;;0.60;0.60;;;1.80;99.90;;;;;;5011268;28;20104;-72
2023/12/06 10:29:08;;;;;;;0.85;0.80;;;1.80;99.90;;;;;;5020906;28;20041;-72
2023/12/06 10:31:45;;;;;;;1.30;1.20;;;1.80;99.90;;;;;;5021553;28;20046;-72
2023/12/06 10:34:11;;;;;;;3.25;1.85;;;1.80;99.90;;;;;;5038576;28;20118;-72
2023/12/06 10:36:40;;;;;;;0.73;0.73;;;1.80;99.90;;;;;;5015766;28;20542;-72
2023/12/06 10:39:11;;;;;;;2.03;1.10;;;1.80;99.90;;;;;;5019365;28;20536;-72
2023/12/06 10:41:40;;;;;;;0.82;0.82;;;1.80;99.90;;;;;;5009318;28;20071;-72
2023/12/06 10:44:07;;;;;;;0.57;0.55;;;1.80;99.90;;;;;;5020053;28;20081;-72
2023/12/06 10:46:33;;;;;;;0.88;0.88;;;1.90;99.90;;;;;;5014665;28;20124;-72
2023/12/06 10:49:01;;;;;;;2.03;1.40;;;1.90;99.90;;;;;;5012412;28;20403;-72
2023/12/06 10:51:30;;;;;;;0.60;0.60;;;1.90;99.90;;;;;;5008421;28;20104;-72
2023/12/06 10:53:59;;;;;;;1.80;0.75;;;1.90;99.90;;;;;;5040220;28;20045;-73
2023/12/06 10:56:27;;;;;;;0.85;0.80;;;1.90;99.90;;;;;;5026056;28;20033;-72
2023/12/06 10:58:55;;;;;;;1.25;1.15;;;1.90;99.90;;;;;;5020294;28;20510;-72
2023/12/06 11:01:22;;;;;;;1.15;1.05;;;1.90;99.90;;;;;;5022073;28;20045;-73
2023/12/06 11:03:47;;;;;;;0.52;0.52;;;1.90;99.90;;;;;;5014034;28;20400;-72
2023/12/06 11:06:38;;;;;;;0.35;0.35;;;1.90;99.90;;;;;;5012568;28;20042;-72
2023/12/06 11:09:38;;;;;;;0.77;0.77;;;1.90;99.90;;;;;;5022732;28;20049;-73
2023/12/06 11:12:14;;;;;;;4.32;1.48;;;2.00;99.90;;;;;;5033563;28;20097;-72
2023/12/06 11:14:47;;;;;;;1.00;0.82;;;2.00;99.90;;;;;;5034240;28;20164;-73
2023/12/06 11:17:54;;;;;;;0.77;0.77;;;2.10;99.90;;;;;;5014005;28;20072;-72
2023/12/06 11:20:20;;;;;;;1.80;1.23;;;2.00;99.90;;;;;;5017009;28;20050;-72
2023/12/06 11:22:47;;;;;;;2.10;1.23;;;2.10;99.90;;;;;;5029672;28;20072;-73
2023/12/06 11:25:14;;;;;;;1.15;1.05;;;2.10;99.90;;;;;;5018775;28;20054;-73
2023/12/06 11:27:41;;;;;;;0.50;0.50;;;2.10;99.90;;;;;;5023037;28;20136;-72
2023/12/06 11:30:24;;;;;;;0.80;0.80;;;2.10;99.90;;;;;;5020715;28;20072;-72
2023/12/06 11:32:57;;;;;;;0.82;0.80;;;2.10;99.90;;;;;;5011997;28;20052;-72
2023/12/06 11:35:24;;;;;;;0.70;0.70;;;2.20;99.90;;;;;;5023553;28;20119;-72
2023/12/06 11:37:54;;;;;;;1.33;1.23;;;2.20;99.90;;;;;;5018287;28;20469;-72
2023/12/06 11:40:24;;;;;;;1.08;1.02;;;2.20;99.90;;;;;;5015745;28;20196;-72
2023/12/06 11:43:01;;;;;;;0.45;0.45;;;2.20;99.90;;;;;;5024869;28;20444;-72
2023/12/06 11:45:29;;;;;;;0.50;0.50;;;2.20;99.90;;;;;;5014033;28;20089;-72
2023/12/06 11:47:57;;;;;;;2.85;1.13;;;2.20;99.90;;;;;;5019005;28;20040;-72
2023/12/06 11:50:26;;;;;;;0.65;0.65;;;2.20;99.90;;;;;;5030033;28;20045;-72
2023/12/06 11:52:53;;;;;;;1.35;1.25;;;2.20;99.90;;;;;;5018108;28;20049;-72
2023/12/06 11:55:20;;;;;;;0.95;0.82;;;2.20;99.90;;;;;;5027592;28;20056;-71
2023/12/06 11:58:07;;;;;;;0.55;0.55;;;2.20;99.90;;;;;;5010861;28;20127;-72
2023/12/06 12:00:34;;;;;;;1.00;0.90;;;2.20;99.90;;;;;;5014901;28;20061;-72
2023/12/06 12:03:02;;;;;;;1.73;1.27;;;2.20;99.90;;;;;;5018159;28;20054;-72
2023/12/06 12:05:29;;;;;;;0.50;0.50;;;2.30;99.90;;;;;;5011326;28;20104;-72
2023/12/06 12:07:56;;;;;;;0.75;0.75;;;2.30;99.90;;;;;;5023413;28;20108;-72
2023/12/06 12:10:21;;;;;;;0.70;0.70;;;2.30;99.90;;;;;;5020514;28;20454;-72
2023/12/06 12:12:48;;;;;;;0.73;0.73;;;2.30;99.90;;;;;;5041432;28;20056;-72
2023/12/06 12:15:15;;;;;;;1.45;1.35;;;2.30;99.90;;;;;;5028776;28;20052;-72
2023/12/06 12:17:42;;;;;;;0.77;0.77;;;2.30;99.90;;;;;;5012557;28;20498;-72
2023/12/06 12:20:08;;;;;;;1.30;0.80;;;2.40;99.90;;;;;;5019165;28;20085;-72
2023/12/06 12:23:03;;;;;;;0.75;0.75;;;2.40;99.90;;;;;;5027224;28;20045;-72
2023/12/06 12:25:29;;;;;;;1.05;0.88;;;2.40;99.90;;;;;;5026948;28;20114;-72
2023/12/06 12:27:54;;;;;;;2.28;0.90;;;2.40;99.90;;;;;;5030571;28;20053;-72
2023/12/06 12:30:20;;;;;;;0.68;0.68;;;2.50;99.90;;;;;;5020330;28;20175;-72
2023/12/06 12:32:51;;;;;;;0.70;0.70;;;2.40;99.90;;;;;;5012296;28;20054;-72
2023/12/06 12:35:17;;;;;;;0.82;0.82;;;2.40;99.90;;;;;;5011143;28;20056;-72
2023/12/06 12:37:44;;;;;;;0.68;0.68;;;2.40;99.90;;;;;;5019858;28;20089;-72
2023/12/06 12:40:10;;;;;;;0.88;0.88;;;2.50;99.90;;;;;;5020001;28;20750;-72
2023/12/06 12:42:40;;;;;;;0.85;0.85;;;2.50;99.90;;;;;;5011583;28;20137;-72
2023/12/06 12:45:14;;;;;;;1.13;1.13;;;2.50;99.90;;;;;;5032337;28;20500;-72
2023/12/06 12:47:40;;;;;;;0.95;0.95;;;2.50;99.90;;;;;;5036546;28;20053;-71
2023/12/06 12:50:07;;;;;;;1.02;1.02;;;2.40;99.90;;;;;;5023989;28;20033;-72
2023/12/06 12:52:34;;;;;;;0.70;0.70;;;2.40;99.90;;;;;;5026849;28;20045;-72
2023/12/06 12:55:04;;;;;;;1.10;0.95;;;2.50;99.90;;;;;;5016454;28;20056;-72